Аэропорт: Кривой Рог. Кривой Рог

ICAO: UKDR

METAR:
Информация по данной станции не доступна
METAR:
2020-08-09 17:05:00
TAF UKDR 091705Z 0918/1018 03004MPS CAVOK TX29/1012Z TN18/1003Z BECMG 1010/1012 36005MPS